sensor_id;sensor_type;location;lat;lon;timestamp;P1;durP1;ratioP1;P2;durP2;ratioP2
75823;SDS011;64457;51.976;9.834;2023-02-20T00:00:39;9.33;;;4.70;;
75823;SDS011;64457;51.976;9.834;2023-02-20T00:03:08;9.57;;;4.63;;
75823;SDS011;64457;51.976;9.834;2023-02-20T00:05:35;8.90;;;4.90;;
75823;SDS011;64457;51.976;9.834;2023-02-20T00:08:03;10.30;;;5.27;;
75823;SDS011;64457;51.976;9.834;2023-02-20T00:10:30;11.73;;;5.20;;
75823;SDS011;64457;51.976;9.834;2023-02-20T00:12:58;12.77;;;5.87;;
75823;SDS011;64457;51.976;9.834;2023-02-20T00:15:26;12.00;;;6.17;;
75823;SDS011;64457;51.976;9.834;2023-02-20T00:17:53;10.37;;;5.50;;
75823;SDS011;64457;51.976;9.834;2023-02-20T00:20:26;11.30;;;6.10;;
75823;SDS011;64457;51.976;9.834;2023-02-20T00:23:00;11.67;;;5.77;;
75823;SDS011;64457;51.976;9.834;2023-02-20T00:25:44;13.27;;;6.70;;
75823;SDS011;64457;51.976;9.834;2023-02-20T00:28:12;11.03;;;5.80;;
75823;SDS011;64457;51.976;9.834;2023-02-20T00:30:43;12.33;;;5.60;;
75823;SDS011;64457;51.976;9.834;2023-02-20T00:33:11;12.77;;;6.30;;
75823;SDS011;64457;51.976;9.834;2023-02-20T00:35:39;12.10;;;6.23;;
75823;SDS011;64457;51.976;9.834;2023-02-20T00:38:06;12.23;;;6.50;;
75823;SDS011;64457;51.976;9.834;2023-02-20T00:40:33;11.17;;;6.00;;
75823;SDS011;64457;51.976;9.834;2023-02-20T00:43:01;11.37;;;6.00;;
75823;SDS011;64457;51.976;9.834;2023-02-20T00:45:28;12.60;;;6.60;;
75823;SDS011;64457;51.976;9.834;2023-02-20T00:47:55;11.17;;;5.67;;
75823;SDS011;64457;51.976;9.834;2023-02-20T00:50:22;12.27;;;6.27;;
75823;SDS011;64457;51.976;9.834;2023-02-20T00:52:51;11.00;;;5.80;;
75823;SDS011;64457;51.976;9.834;2023-02-20T00:55:18;11.10;;;5.57;;
75823;SDS011;64457;51.976;9.834;2023-02-20T00:57:46;10.90;;;5.70;;
75823;SDS011;64457;51.976;9.834;2023-02-20T01:00:16;10.47;;;5.70;;
75823;SDS011;64457;51.976;9.834;2023-02-20T01:02:47;10.93;;;5.30;;
75823;SDS011;64457;51.976;9.834;2023-02-20T01:05:14;11.10;;;5.70;;
75823;SDS011;64457;51.976;9.834;2023-02-20T01:07:42;11.40;;;6.17;;
75823;SDS011;64457;51.976;9.834;2023-02-20T01:10:10;10.40;;;5.73;;
75823;SDS011;64457;51.976;9.834;2023-02-20T01:12:39;12.17;;;6.20;;
75823;SDS011;64457;51.976;9.834;2023-02-20T01:15:07;10.20;;;5.77;;
75823;SDS011;64457;51.976;9.834;2023-02-20T01:17:36;10.87;;;5.50;;
75823;SDS011;64457;51.976;9.834;2023-02-20T01:20:04;10.73;;;5.10;;
75823;SDS011;64457;51.976;9.834;2023-02-20T01:22:33;11.03;;;5.53;;
75823;SDS011;64457;51.976;9.834;2023-02-20T01:25:01;10.33;;;6.17;;
75823;SDS011;64457;51.976;9.834;2023-02-20T01:27:29;10.40;;;6.20;;
75823;SDS011;64457;51.976;9.834;2023-02-20T01:29:56;12.57;;;5.47;;
75823;SDS011;64457;51.976;9.834;2023-02-20T01:32:24;13.53;;;6.20;;
75823;SDS011;64457;51.976;9.834;2023-02-20T01:34:51;10.33;;;5.50;;
75823;SDS011;64457;51.976;9.834;2023-02-20T01:37:18;10.60;;;6.10;;
75823;SDS011;64457;51.976;9.834;2023-02-20T01:39:45;10.50;;;5.90;;
75823;SDS011;64457;51.976;9.834;2023-02-20T01:42:15;14.87;;;6.07;;
75823;SDS011;64457;51.976;9.834;2023-02-20T01:44:49;10.40;;;5.80;;
75823;SDS011;64457;51.976;9.834;2023-02-20T01:47:17;12.77;;;7.17;;
75823;SDS011;64457;51.976;9.834;2023-02-20T01:49:47;12.40;;;6.20;;
75823;SDS011;64457;51.976;9.834;2023-02-20T01:52:18;13.43;;;6.90;;
75823;SDS011;64457;51.976;9.834;2023-02-20T01:54:50;13.17;;;7.00;;
75823;SDS011;64457;51.976;9.834;2023-02-20T01:57:23;12.57;;;7.07;;
75823;SDS011;64457;51.976;9.834;2023-02-20T01:59:56;14.30;;;7.20;;
75823;SDS011;64457;51.976;9.834;2023-02-20T02:02:29;13.97;;;7.33;;
75823;SDS011;64457;51.976;9.834;2023-02-20T02:04:59;15.60;;;8.53;;
75823;SDS011;64457;51.976;9.834;2023-02-20T02:07:27;15.40;;;8.80;;
75823;SDS011;64457;51.976;9.834;2023-02-20T02:09:56;13.67;;;8.00;;
75823;SDS011;64457;51.976;9.834;2023-02-20T02:12:28;15.40;;;8.73;;
75823;SDS011;64457;51.976;9.834;2023-02-20T02:14:57;16.43;;;9.33;;
75823;SDS011;64457;51.976;9.834;2023-02-20T02:17:32;14.93;;;8.20;;
75823;SDS011;64457;51.976;9.834;2023-02-20T02:23:52;19.77;;;10.60;;
75823;SDS011;64457;51.976;9.834;2023-02-20T02:27:06;18.83;;;11.10;;
75823;SDS011;64457;51.976;9.834;2023-02-20T02:30:29;18.60;;;10.30;;
75823;SDS011;64457;51.976;9.834;2023-02-20T02:39:24;21.23;;;12.20;;
75823;SDS011;64457;51.976;9.834;2023-02-20T02:42:02;20.90;;;12.40;;
75823;SDS011;64457;51.976;9.834;2023-02-20T02:44:39;23.47;;;12.40;;
75823;SDS011;64457;51.976;9.834;2023-02-20T02:47:12;24.10;;;13.13;;
75823;SDS011;64457;51.976;9.834;2023-02-20T02:49:47;25.43;;;13.80;;
75823;SDS011;64457;51.976;9.834;2023-02-20T02:52:21;24.67;;;14.03;;
75823;SDS011;64457;51.976;9.834;2023-02-20T02:55:13;25.50;;;14.77;;
75823;SDS011;64457;51.976;9.834;2023-02-20T02:57:43;23.53;;;12.30;;
75823;SDS011;64457;51.976;9.834;2023-02-20T03:00:12;25.93;;;13.87;;
75823;SDS011;64457;51.976;9.834;2023-02-20T03:02:45;23.60;;;13.00;;
75823;SDS011;64457;51.976;9.834;2023-02-20T03:05:20;23.90;;;13.70;;
75823;SDS011;64457;51.976;9.834;2023-02-20T03:08:07;21.80;;;12.23;;
75823;SDS011;64457;51.976;9.834;2023-02-20T03:10:46;21.93;;;12.67;;
75823;SDS011;64457;51.976;9.834;2023-02-20T03:13:17;24.40;;;12.87;;
75823;SDS011;64457;51.976;9.834;2023-02-20T03:15:46;31.63;;;13.83;;
75823;SDS011;64457;51.976;9.834;2023-02-20T03:18:19;22.03;;;11.80;;
75823;SDS011;64457;51.976;9.834;2023-02-20T03:21:00;22.70;;;12.20;;
75823;SDS011;64457;51.976;9.834;2023-02-20T03:23:37;25.00;;;13.23;;
75823;SDS011;64457;51.976;9.834;2023-02-20T03:26:10;21.93;;;12.10;;
75823;SDS011;64457;51.976;9.834;2023-02-20T03:28:43;21.67;;;11.83;;
75823;SDS011;64457;51.976;9.834;2023-02-20T03:31:17;20.77;;;11.30;;
75823;SDS011;64457;51.976;9.834;2023-02-20T03:33:53;19.77;;;11.23;;
75823;SDS011;64457;51.976;9.834;2023-02-20T03:36:44;19.97;;;11.03;;
75823;SDS011;64457;51.976;9.834;2023-02-20T03:39:35;17.20;;;9.87;;
75823;SDS011;64457;51.976;9.834;2023-02-20T03:42:25;20.17;;;10.97;;
75823;SDS011;64457;51.976;9.834;2023-02-20T03:45:14;18.83;;;9.40;;
75823;SDS011;64457;51.976;9.834;2023-02-20T03:47:43;18.97;;;10.10;;
75823;SDS011;64457;51.976;9.834;2023-02-20T03:50:14;16.00;;;8.73;;
75823;SDS011;64457;51.976;9.834;2023-02-20T03:52:59;16.50;;;8.83;;
75823;SDS011;64457;51.976;9.834;2023-02-20T03:55:28;16.43;;;8.30;;
75823;SDS011;64457;51.976;9.834;2023-02-20T03:57:56;17.67;;;8.97;;
75823;SDS011;64457;51.976;9.834;2023-02-20T04:00:28;16.00;;;8.50;;
75823;SDS011;64457;51.976;9.834;2023-02-20T04:02:59;16.47;;;8.77;;
75823;SDS011;64457;51.976;9.834;2023-02-20T04:05:34;15.40;;;8.33;;
75823;SDS011;64457;51.976;9.834;2023-02-20T04:08:07;16.60;;;9.10;;
75823;SDS011;64457;51.976;9.834;2023-02-20T04:10:40;15.67;;;8.07;;
75823;SDS011;64457;51.976;9.834;2023-02-20T04:13:14;18.20;;;8.70;;
75823;SDS011;64457;51.976;9.834;2023-02-20T04:15:42;24.70;;;9.00;;
75823;SDS011;64457;51.976;9.834;2023-02-20T04:18:10;16.37;;;8.53;;
75823;SDS011;64457;51.976;9.834;2023-02-20T04:20:42;16.93;;;8.43;;
75823;SDS011;64457;51.976;9.834;2023-02-20T04:23:12;16.80;;;7.77;;
75823;SDS011;64457;51.976;9.834;2023-02-20T04:25:44;15.47;;;8.30;;
75823;SDS011;64457;51.976;9.834;2023-02-20T04:28:13;17.30;;;8.83;;
75823;SDS011;64457;51.976;9.834;2023-02-20T04:30:42;15.07;;;8.07;;
75823;SDS011;64457;51.976;9.834;2023-02-20T04:33:09;16.90;;;7.83;;
75823;SDS011;64457;51.976;9.834;2023-02-20T04:35:37;18.77;;;8.77;;
75823;SDS011;64457;51.976;9.834;2023-02-20T04:38:05;19.03;;;8.60;;
75823;SDS011;64457;51.976;9.834;2023-02-20T04:40:33;14.90;;;7.80;;
75823;SDS011;64457;51.976;9.834;2023-02-20T04:43:02;15.17;;;8.37;;
75823;SDS011;64457;51.976;9.834;2023-02-20T04:45:29;17.33;;;7.40;;
75823;SDS011;64457;51.976;9.834;2023-02-20T04:47:56;15.83;;;7.40;;
75823;SDS011;64457;51.976;9.834;2023-02-20T04:50:24;16.20;;;7.83;;
75823;SDS011;64457;51.976;9.834;2023-02-20T04:52:54;18.03;;;8.27;;
75823;SDS011;64457;51.976;9.834;2023-02-20T04:55:22;16.87;;;8.10;;
75823;SDS011;64457;51.976;9.834;2023-02-20T04:57:49;16.50;;;8.73;;
75823;SDS011;64457;51.976;9.834;2023-02-20T05:00:23;17.43;;;7.53;;
75823;SDS011;64457;51.976;9.834;2023-02-20T05:02:52;19.33;;;9.00;;
75823;SDS011;64457;51.976;9.834;2023-02-20T05:05:20;16.67;;;7.43;;
75823;SDS011;64457;51.976;9.834;2023-02-20T05:07:52;16.27;;;8.07;;
75823;SDS011;64457;51.976;9.834;2023-02-20T05:10:21;15.40;;;7.87;;
75823;SDS011;64457;51.976;9.834;2023-02-20T05:12:49;16.67;;;7.83;;
75823;SDS011;64457;51.976;9.834;2023-02-20T05:15:17;17.00;;;8.70;;
75823;SDS011;64457;51.976;9.834;2023-02-20T05:17:46;15.60;;;8.13;;
75823;SDS011;64457;51.976;9.834;2023-02-20T05:20:13;20.63;;;8.20;;
75823;SDS011;64457;51.976;9.834;2023-02-20T05:22:43;16.70;;;7.30;;
75823;SDS011;64457;51.976;9.834;2023-02-20T05:25:10;14.93;;;7.80;;
75823;SDS011;64457;51.976;9.834;2023-02-20T05:27:38;15.87;;;7.33;;
75823;SDS011;64457;51.976;9.834;2023-02-20T05:30:07;18.07;;;7.33;;
75823;SDS011;64457;51.976;9.834;2023-02-20T05:32:36;15.40;;;7.87;;
75823;SDS011;64457;51.976;9.834;2023-02-20T05:35:05;18.90;;;8.50;;
75823;SDS011;64457;51.976;9.834;2023-02-20T05:37:32;19.17;;;10.03;;
75823;SDS011;64457;51.976;9.834;2023-02-20T05:39:59;16.77;;;7.30;;
75823;SDS011;64457;51.976;9.834;2023-02-20T05:42:27;15.00;;;7.47;;
75823;SDS011;64457;51.976;9.834;2023-02-20T05:44:54;16.23;;;7.70;;
75823;SDS011;64457;51.976;9.834;2023-02-20T05:47:21;16.33;;;7.40;;
75823;SDS011;64457;51.976;9.834;2023-02-20T05:49:48;14.87;;;6.90;;
75823;SDS011;64457;51.976;9.834;2023-02-20T05:52:18;16.13;;;8.13;;
75823;SDS011;64457;51.976;9.834;2023-02-20T05:54:45;15.70;;;7.27;;
75823;SDS011;64457;51.976;9.834;2023-02-20T05:57:13;19.60;;;7.60;;
75823;SDS011;64457;51.976;9.834;2023-02-20T05:59:41;15.10;;;7.23;;
75823;SDS011;64457;51.976;9.834;2023-02-20T06:02:08;13.83;;;6.83;;
75823;SDS011;64457;51.976;9.834;2023-02-20T06:04:35;13.90;;;6.97;;
75823;SDS011;64457;51.976;9.834;2023-02-20T06:07:02;15.60;;;7.37;;
75823;SDS011;64457;51.976;9.834;2023-02-20T06:09:31;15.67;;;6.80;;
75823;SDS011;64457;51.976;9.834;2023-02-20T06:11:59;15.10;;;7.33;;
75823;SDS011;64457;51.976;9.834;2023-02-20T06:14:26;13.50;;;6.70;;
75823;SDS011;64457;51.976;9.834;2023-02-20T06:16:55;14.30;;;6.93;;
75823;SDS011;64457;51.976;9.834;2023-02-20T06:19:23;14.60;;;6.50;;
75823;SDS011;64457;51.976;9.834;2023-02-20T06:21:51;16.10;;;6.80;;
75823;SDS011;64457;51.976;9.834;2023-02-20T06:24:19;19.20;;;7.07;;
75823;SDS011;64457;51.976;9.834;2023-02-20T06:26:48;14.50;;;7.17;;
75823;SDS011;64457;51.976;9.834;2023-02-20T06:29:16;13.70;;;6.73;;
75823;SDS011;64457;51.976;9.834;2023-02-20T06:31:44;21.33;;;7.57;;
75823;SDS011;64457;51.976;9.834;2023-02-20T06:34:11;16.60;;;7.13;;
75823;SDS011;64457;51.976;9.834;2023-02-20T06:36:39;13.70;;;6.87;;
75823;SDS011;64457;51.976;9.834;2023-02-20T06:39:07;14.07;;;6.33;;
75823;SDS011;64457;51.976;9.834;2023-02-20T06:41:37;14.93;;;6.97;;
75823;SDS011;64457;51.976;9.834;2023-02-20T06:44:06;16.50;;;7.30;;
75823;SDS011;64457;51.976;9.834;2023-02-20T06:46:33;18.70;;;6.80;;
75823;SDS011;64457;51.976;9.834;2023-02-20T06:49:01;14.20;;;6.87;;
75823;SDS011;64457;51.976;9.834;2023-02-20T06:51:29;17.43;;;6.90;;
75823;SDS011;64457;51.976;9.834;2023-02-20T06:53:59;15.53;;;6.97;;
75823;SDS011;64457;51.976;9.834;2023-02-20T06:56:28;14.30;;;7.13;;
75823;SDS011;64457;51.976;9.834;2023-02-20T06:58:58;15.27;;;6.67;;
75823;SDS011;64457;51.976;9.834;2023-02-20T07:01:28;12.77;;;6.47;;
75823;SDS011;64457;51.976;9.834;2023-02-20T07:04:03;11.80;;;6.13;;
75823;SDS011;64457;51.976;9.834;2023-02-20T07:06:31;14.30;;;6.90;;
75823;SDS011;64457;51.976;9.834;2023-02-20T07:08:58;13.40;;;6.33;;
75823;SDS011;64457;51.976;9.834;2023-02-20T07:11:26;19.80;;;6.67;;
75823;SDS011;64457;51.976;9.834;2023-02-20T07:13:53;16.10;;;6.33;;
75823;SDS011;64457;51.976;9.834;2023-02-20T07:16:22;15.40;;;6.90;;
75823;SDS011;64457;51.976;9.834;2023-02-20T07:18:51;14.50;;;6.23;;
75823;SDS011;64457;51.976;9.834;2023-02-20T07:21:18;16.10;;;6.00;;
75823;SDS011;64457;51.976;9.834;2023-02-20T07:23:46;14.97;;;6.00;;
75823;SDS011;64457;51.976;9.834;2023-02-20T07:26:17;17.13;;;5.87;;
75823;SDS011;64457;51.976;9.834;2023-02-20T07:28:45;14.60;;;6.00;;
75823;SDS011;64457;51.976;9.834;2023-02-20T07:31:14;11.77;;;6.00;;
75823;SDS011;64457;51.976;9.834;2023-02-20T07:33:41;13.97;;;5.30;;
75823;SDS011;64457;51.976;9.834;2023-02-20T07:36:10;15.93;;;5.93;;
75823;SDS011;64457;51.976;9.834;2023-02-20T07:38:38;13.80;;;5.27;;
75823;SDS011;64457;51.976;9.834;2023-02-20T07:41:06;13.67;;;5.20;;
75823;SDS011;64457;51.976;9.834;2023-02-20T07:43:35;11.07;;;5.20;;
75823;SDS011;64457;51.976;9.834;2023-02-20T07:46:02;9.57;;;4.53;;
75823;SDS011;64457;51.976;9.834;2023-02-20T07:48:29;13.30;;;5.10;;
75823;SDS011;64457;51.976;9.834;2023-02-20T07:50:58;11.90;;;5.00;;
75823;SDS011;64457;51.976;9.834;2023-02-20T07:53:27;10.37;;;5.30;;
75823;SDS011;64457;51.976;9.834;2023-02-20T07:55:54;12.10;;;5.60;;
75823;SDS011;64457;51.976;9.834;2023-02-20T07:58:21;11.40;;;4.70;;
75823;SDS011;64457;51.976;9.834;2023-02-20T08:00:49;10.57;;;4.97;;
75823;SDS011;64457;51.976;9.834;2023-02-20T08:03:18;11.17;;;4.70;;
75823;SDS011;64457;51.976;9.834;2023-02-20T08:05:45;12.20;;;5.00;;
75823;SDS011;64457;51.976;9.834;2023-02-20T08:08:13;10.07;;;4.63;;
75823;SDS011;64457;51.976;9.834;2023-02-20T08:10:41;10.77;;;4.63;;
75823;SDS011;64457;51.976;9.834;2023-02-20T08:13:10;14.83;;;6.30;;
75823;SDS011;64457;51.976;9.834;2023-02-20T08:15:37;12.87;;;5.20;;
75823;SDS011;64457;51.976;9.834;2023-02-20T08:18:06;10.50;;;5.60;;
75823;SDS011;64457;51.976;9.834;2023-02-20T08:20:33;10.93;;;4.87;;
75823;SDS011;64457;51.976;9.834;2023-02-20T08:23:00;12.23;;;5.03;;
75823;SDS011;64457;51.976;9.834;2023-02-20T08:25:29;12.60;;;5.10;;
75823;SDS011;64457;51.976;9.834;2023-02-20T08:27:58;11.37;;;4.23;;
75823;SDS011;64457;51.976;9.834;2023-02-20T08:30:26;12.43;;;4.63;;
75823;SDS011;64457;51.976;9.834;2023-02-20T08:32:54;10.57;;;4.60;;
75823;SDS011;64457;51.976;9.834;2023-02-20T08:35:21;11.13;;;4.90;;
75823;SDS011;64457;51.976;9.834;2023-02-20T08:37:49;9.87;;;4.57;;
75823;SDS011;64457;51.976;9.834;2023-02-20T08:40:17;9.60;;;4.40;;
75823;SDS011;64457;51.976;9.834;2023-02-20T08:42:44;15.10;;;5.33;;
75823;SDS011;64457;51.976;9.834;2023-02-20T08:45:17;11.10;;;4.50;;
75823;SDS011;64457;51.976;9.834;2023-02-20T08:47:45;9.03;;;4.10;;
75823;SDS011;64457;51.976;9.834;2023-02-20T08:50:14;11.47;;;5.17;;
75823;SDS011;64457;51.976;9.834;2023-02-20T08:52:42;11.70;;;5.00;;
75823;SDS011;64457;51.976;9.834;2023-02-20T08:55:11;11.57;;;5.60;;
75823;SDS011;64457;51.976;9.834;2023-02-20T08:57:41;11.27;;;4.77;;
75823;SDS011;64457;51.976;9.834;2023-02-20T09:00:09;8.33;;;4.57;;
75823;SDS011;64457;51.976;9.834;2023-02-20T09:02:43;13.60;;;5.83;;
75823;SDS011;64457;51.976;9.834;2023-02-20T09:05:12;11.67;;;5.50;;
75823;SDS011;64457;51.976;9.834;2023-02-20T09:07:39;10.00;;;4.30;;
75823;SDS011;64457;51.976;9.834;2023-02-20T09:10:07;11.57;;;6.03;;
75823;SDS011;64457;51.976;9.834;2023-02-20T09:12:35;9.47;;;4.80;;
75823;SDS011;64457;51.976;9.834;2023-02-20T09:15:04;13.07;;;5.40;;
75823;SDS011;64457;51.976;9.834;2023-02-20T09:17:33;19.07;;;6.07;;
75823;SDS011;64457;51.976;9.834;2023-02-20T09:20:02;11.03;;;5.50;;
75823;SDS011;64457;51.976;9.834;2023-02-20T09:22:34;15.50;;;6.30;;
75823;SDS011;64457;51.976;9.834;2023-02-20T09:25:02;11.60;;;5.47;;
75823;SDS011;64457;51.976;9.834;2023-02-20T09:27:31;12.80;;;4.37;;
75823;SDS011;64457;51.976;9.834;2023-02-20T09:29:58;14.50;;;6.30;;
75823;SDS011;64457;51.976;9.834;2023-02-20T09:32:25;13.33;;;6.30;;
75823;SDS011;64457;51.976;9.834;2023-02-20T09:34:52;14.90;;;6.80;;
75823;SDS011;64457;51.976;9.834;2023-02-20T09:37:23;14.33;;;6.60;;
75823;SDS011;64457;51.976;9.834;2023-02-20T09:39:50;14.47;;;7.57;;
75823;SDS011;64457;51.976;9.834;2023-02-20T09:42:21;8.73;;;5.20;;
75823;SDS011;64457;51.976;9.834;2023-02-20T09:45:00;14.33;;;6.10;;
75823;SDS011;64457;51.976;9.834;2023-02-20T09:47:37;17.40;;;7.60;;
75823;SDS011;64457;51.976;9.834;2023-02-20T09:50:21;13.83;;;6.97;;
75823;SDS011;64457;51.976;9.834;2023-02-20T09:53:01;12.50;;;6.40;;
75823;SDS011;64457;51.976;9.834;2023-02-20T09:55:34;12.63;;;6.80;;
75823;SDS011;64457;51.976;9.834;2023-02-20T09:58:04;16.10;;;7.60;;
75823;SDS011;64457;51.976;9.834;2023-02-20T10:00:45;17.40;;;7.90;;
75823;SDS011;64457;51.976;9.834;2023-02-20T10:03:16;15.43;;;7.50;;
75823;SDS011;64457;51.976;9.834;2023-02-20T10:05:49;13.43;;;6.73;;
75823;SDS011;64457;51.976;9.834;2023-02-20T10:08:19;13.83;;;7.70;;
75823;SDS011;64457;51.976;9.834;2023-02-20T10:10:48;16.63;;;7.80;;
75823;SDS011;64457;51.976;9.834;2023-02-20T10:13:31;16.40;;;7.93;;
75823;SDS011;64457;51.976;9.834;2023-02-20T10:16:18;15.67;;;7.00;;
75823;SDS011;64457;51.976;9.834;2023-02-20T10:18:57;15.17;;;8.40;;
75823;SDS011;64457;51.976;9.834;2023-02-20T10:21:40;18.67;;;9.40;;
75823;SDS011;64457;51.976;9.834;2023-02-20T10:24:22;17.77;;;8.77;;
75823;SDS011;64457;51.976;9.834;2023-02-20T10:27:13;19.43;;;8.60;;
75823;SDS011;64457;51.976;9.834;2023-02-20T10:29:51;15.80;;;8.60;;
75823;SDS011;64457;51.976;9.834;2023-02-20T10:32:20;18.30;;;8.80;;
75823;SDS011;64457;51.976;9.834;2023-02-20T10:34:57;16.40;;;8.97;;
75823;SDS011;64457;51.976;9.834;2023-02-20T10:37:32;21.20;;;9.23;;
75823;SDS011;64457;51.976;9.834;2023-02-20T10:40:05;20.93;;;9.27;;
75823;SDS011;64457;51.976;9.834;2023-02-20T10:42:41;21.80;;;8.97;;
75823;SDS011;64457;51.976;9.834;2023-02-20T10:45:16;17.57;;;8.73;;
75823;SDS011;64457;51.976;9.834;2023-02-20T10:47:53;18.77;;;9.47;;
75823;SDS011;64457;51.976;9.834;2023-02-20T10:50:28;16.80;;;8.80;;
75823;SDS011;64457;51.976;9.834;2023-02-20T10:53:03;19.03;;;8.87;;
75823;SDS011;64457;51.976;9.834;2023-02-20T10:55:47;18.90;;;10.30;;
75823;SDS011;64457;51.976;9.834;2023-02-20T10:58:20;16.60;;;9.03;;
75823;SDS011;64457;51.976;9.834;2023-02-20T11:00:53;17.00;;;8.80;;
75823;SDS011;64457;51.976;9.834;2023-02-20T11:03:22;17.80;;;8.30;;
75823;SDS011;64457;51.976;9.834;2023-02-20T11:06:01;14.23;;;8.37;;
75823;SDS011;64457;51.976;9.834;2023-02-20T11:08:31;17.57;;;8.90;;
75823;SDS011;64457;51.976;9.834;2023-02-20T11:11:10;16.80;;;8.73;;
75823;SDS011;64457;51.976;9.834;2023-02-20T11:13:57;24.20;;;9.23;;
75823;SDS011;64457;51.976;9.834;2023-02-20T11:16:26;16.10;;;9.20;;
75823;SDS011;64457;51.976;9.834;2023-02-20T11:19:01;21.50;;;9.33;;
75823;SDS011;64457;51.976;9.834;2023-02-20T11:21:38;16.97;;;9.47;;
75823;SDS011;64457;51.976;9.834;2023-02-20T11:27:00;17.83;;;9.70;;
75823;SDS011;64457;51.976;9.834;2023-02-20T11:29:33;17.80;;;8.23;;
75823;SDS011;64457;51.976;9.834;2023-02-20T11:32:17;16.97;;;8.43;;
75823;SDS011;64457;51.976;9.834;2023-02-20T11:35:11;21.70;;;8.90;;
75823;SDS011;64457;51.976;9.834;2023-02-20T11:37:51;16.57;;;7.80;;
75823;SDS011;64457;51.976;9.834;2023-02-20T11:41:08;20.50;;;9.57;;
75823;SDS011;64457;51.976;9.834;2023-02-20T11:44:03;17.83;;;8.77;;
75823;SDS011;64457;51.976;9.834;2023-02-20T11:46:37;26.63;;;9.37;;
75823;SDS011;64457;51.976;9.834;2023-02-20T11:49:05;19.07;;;7.90;;
75823;SDS011;64457;51.976;9.834;2023-02-20T11:51:36;15.10;;;7.73;;
75823;SDS011;64457;51.976;9.834;2023-02-20T11:54:05;16.60;;;7.10;;
75823;SDS011;64457;51.976;9.834;2023-02-20T11:56:35;18.17;;;8.50;;
75823;SDS011;64457;51.976;9.834;2023-02-20T11:59:16;17.87;;;8.83;;
75823;SDS011;64457;51.976;9.834;2023-02-20T12:02:03;20.40;;;8.67;;
75823;SDS011;64457;51.976;9.834;2023-02-20T12:05:00;17.43;;;8.33;;
75823;SDS011;64457;51.976;9.834;2023-02-20T12:07:35;25.00;;;9.20;;
75823;SDS011;64457;51.976;9.834;2023-02-20T12:12:58;20.00;;;9.33;;
75823;SDS011;64457;51.976;9.834;2023-02-20T12:15:27;13.50;;;6.53;;
75823;SDS011;64457;51.976;9.834;2023-02-20T12:18:09;21.50;;;9.40;;
75823;SDS011;64457;51.976;9.834;2023-02-20T12:21:22;16.70;;;8.80;;
75823;SDS011;64457;51.976;9.834;2023-02-20T12:24:05;18.77;;;8.90;;
75823;SDS011;64457;51.976;9.834;2023-02-20T12:26:55;15.50;;;7.90;;
75823;SDS011;64457;51.976;9.834;2023-02-20T12:29:32;19.23;;;9.63;;
75823;SDS011;64457;51.976;9.834;2023-02-20T12:32:20;17.63;;;8.20;;
75823;SDS011;64457;51.976;9.834;2023-02-20T12:35:09;20.20;;;9.27;;
75823;SDS011;64457;51.976;9.834;2023-02-20T12:37:53;19.97;;;9.20;;
75823;SDS011;64457;51.976;9.834;2023-02-20T12:40:37;21.00;;;9.73;;
75823;SDS011;64457;51.976;9.834;2023-02-20T12:43:20;18.97;;;8.47;;
75823;SDS011;64457;51.976;9.834;2023-02-20T12:46:00;24.20;;;9.50;;
75823;SDS011;64457;51.976;9.834;2023-02-20T12:48:39;22.37;;;11.03;;
75823;SDS011;64457;51.976;9.834;2023-02-20T12:51:17;26.80;;;11.53;;
75823;SDS011;64457;51.976;9.834;2023-02-20T12:53:56;20.17;;;9.60;;
75823;SDS011;64457;51.976;9.834;2023-02-20T12:56:41;19.03;;;9.10;;
75823;SDS011;64457;51.976;9.834;2023-02-20T12:59:22;24.80;;;9.87;;
75823;SDS011;64457;51.976;9.834;2023-02-20T13:01:54;20.90;;;9.43;;
75823;SDS011;64457;51.976;9.834;2023-02-20T13:04:31;18.77;;;9.70;;
75823;SDS011;64457;51.976;9.834;2023-02-20T13:07:09;21.10;;;10.07;;
75823;SDS011;64457;51.976;9.834;2023-02-20T13:09:44;23.33;;;9.40;;
75823;SDS011;64457;51.976;9.834;2023-02-20T13:12:23;23.43;;;11.43;;
75823;SDS011;64457;51.976;9.834;2023-02-20T13:14:54;21.27;;;10.67;;
75823;SDS011;64457;51.976;9.834;2023-02-20T13:17:37;27.83;;;11.30;;
75823;SDS011;64457;51.976;9.834;2023-02-20T13:20:16;22.90;;;11.27;;
75823;SDS011;64457;51.976;9.834;2023-02-20T13:22:57;24.33;;;11.47;;
75823;SDS011;64457;51.976;9.834;2023-02-20T13:25:37;27.00;;;11.60;;
75823;SDS011;64457;51.976;9.834;2023-02-20T13:28:32;20.43;;;8.70;;
75823;SDS011;64457;51.976;9.834;2023-02-20T13:31:16;25.50;;;10.67;;
75823;SDS011;64457;51.976;9.834;2023-02-20T13:33:47;30.13;;;11.97;;
75823;SDS011;64457;51.976;9.834;2023-02-20T13:48:18;28.30;;;12.43;;
75823;SDS011;64457;51.976;9.834;2023-02-20T13:54:24;33.17;;;14.53;;
75823;SDS011;64457;51.976;9.834;2023-02-20T13:56:54;25.43;;;12.13;;
75823;SDS011;64457;51.976;9.834;2023-02-20T13:59:29;26.27;;;12.27;;
75823;SDS011;64457;51.976;9.834;2023-02-20T14:02:04;27.93;;;13.07;;
75823;SDS011;64457;51.976;9.834;2023-02-20T14:04:55;23.40;;;10.20;;
75823;SDS011;64457;51.976;9.834;2023-02-20T14:07:27;27.37;;;13.07;;
75823;SDS011;64457;51.976;9.834;2023-02-20T14:10:00;25.10;;;13.10;;
75823;SDS011;64457;51.976;9.834;2023-02-20T14:12:30;25.40;;;13.00;;
75823;SDS011;64457;51.976;9.834;2023-02-20T14:15:01;25.03;;;12.50;;
75823;SDS011;64457;51.976;9.834;2023-02-20T14:17:31;23.50;;;11.97;;
75823;SDS011;64457;51.976;9.834;2023-02-20T14:20:01;27.20;;;13.43;;
75823;SDS011;64457;51.976;9.834;2023-02-20T14:22:32;32.63;;;13.00;;
75823;SDS011;64457;51.976;9.834;2023-02-20T14:25:01;27.20;;;13.27;;
75823;SDS011;64457;51.976;9.834;2023-02-20T14:27:46;28.60;;;13.93;;
75823;SDS011;64457;51.976;9.834;2023-02-20T14:30:14;25.30;;;13.43;;
75823;SDS011;64457;51.976;9.834;2023-02-20T14:32:45;27.03;;;13.13;;
75823;SDS011;64457;51.976;9.834;2023-02-20T14:35:22;31.17;;;13.97;;
75823;SDS011;64457;51.976;9.834;2023-02-20T14:38:05;28.23;;;13.90;;
75823;SDS011;64457;51.976;9.834;2023-02-20T14:40:45;33.77;;;14.37;;
75823;SDS011;64457;51.976;9.834;2023-02-20T14:43:14;31.90;;;13.80;;
75823;SDS011;64457;51.976;9.834;2023-02-20T14:45:44;32.87;;;14.87;;
75823;SDS011;64457;51.976;9.834;2023-02-20T14:48:20;28.20;;;13.80;;
75823;SDS011;64457;51.976;9.834;2023-02-20T14:51:08;30.30;;;14.23;;
75823;SDS011;64457;51.976;9.834;2023-02-20T14:53:42;28.30;;;13.97;;
75823;SDS011;64457;51.976;9.834;2023-02-20T14:56:12;28.87;;;13.47;;
75823;SDS011;64457;51.976;9.834;2023-02-20T14:58:42;30.50;;;13.43;;
75823;SDS011;64457;51.976;9.834;2023-02-20T15:01:17;26.90;;;13.97;;
75823;SDS011;64457;51.976;9.834;2023-02-20T15:04:02;29.40;;;14.67;;
75823;SDS011;64457;51.976;9.834;2023-02-20T15:06:34;28.40;;;14.40;;
75823;SDS011;64457;51.976;9.834;2023-02-20T15:09:04;27.00;;;14.33;;
75823;SDS011;64457;51.976;9.834;2023-02-20T15:11:33;30.60;;;14.30;;
75823;SDS011;64457;51.976;9.834;2023-02-20T15:14:02;25.90;;;13.03;;
75823;SDS011;64457;51.976;9.834;2023-02-20T15:16:31;33.50;;;15.07;;
75823;SDS011;64457;51.976;9.834;2023-02-20T15:19:18;29.77;;;14.50;;
75823;SDS011;64457;51.976;9.834;2023-02-20T15:21:54;27.77;;;14.63;;
75823;SDS011;64457;51.976;9.834;2023-02-20T15:24:32;28.07;;;14.47;;
75823;SDS011;64457;51.976;9.834;2023-02-20T15:27:12;29.50;;;13.90;;
75823;SDS011;64457;51.976;9.834;2023-02-20T15:29:42;27.20;;;13.83;;
75823;SDS011;64457;51.976;9.834;2023-02-20T15:32:18;29.47;;;14.37;;
75823;SDS011;64457;51.976;9.834;2023-02-20T15:34:49;28.93;;;14.60;;